createdAt,value
2022-09-04T00:00:08.729Z,21.38
2022-09-04T00:02:57.399Z,21.29
2022-09-04T00:05:32.498Z,21.16
2022-09-04T00:08:14.596Z,20.31
2022-09-04T00:10:53.801Z,20.37
2022-09-04T00:13:27.691Z,20.38
2022-09-04T00:16:06.680Z,19.95
2022-09-04T00:18:39.690Z,20.45
2022-09-04T00:21:17.165Z,20.22
2022-09-04T00:23:52.260Z,20.06
2022-09-04T00:26:30.319Z,20.21
2022-09-04T00:29:05.281Z,20.45
2022-09-04T00:31:39.540Z,20.59
2022-09-04T00:34:21.916Z,20.84
2022-09-04T00:36:55.877Z,20.55
2022-09-04T00:39:30.422Z,20.52
2022-09-04T00:42:09.937Z,20.78
2022-09-04T00:44:53.157Z,20.82
2022-09-04T00:47:42.210Z,20.95
2022-09-04T00:50:40.334Z,20.99
2022-09-04T00:53:38.124Z,20.98
2022-09-04T00:56:25.433Z,20.89
2022-09-04T00:59:08.020Z,20.88
2022-09-04T01:01:36.774Z,20.90
2022-09-04T01:04:33.408Z,20.49
2022-09-04T01:07:32.149Z,20.54
2022-09-04T01:10:16.740Z,20.49
2022-09-04T01:12:52.632Z,20.10
2022-09-04T01:15:27.991Z,20.47
2022-09-04T01:18:05.348Z,20.39
2022-09-04T01:21:00.688Z,20.54
2022-09-04T01:23:46.218Z,20.50
2022-09-04T01:26:23.105Z,20.49
2022-09-04T01:29:07.443Z,20.53
2022-09-04T01:31:43.693Z,20.22
2022-09-04T01:34:26.889Z,20.04
2022-09-04T01:37:01.776Z,20.06
2022-09-04T01:39:33.293Z,20.46
2022-09-04T01:42:11.266Z,20.52
2022-09-04T01:44:39.661Z,20.24
2022-09-04T01:47:16.163Z,20.06
2022-09-04T01:49:51.315Z,20.37
2022-09-04T01:52:36.752Z,20.44
2022-09-04T01:55:18.276Z,20.43
2022-09-04T01:58:04.933Z,20.40
2022-09-04T02:00:39.088Z,20.45
2022-09-04T02:03:18.112Z,19.90
2022-09-04T02:06:01.881Z,20.00
2022-09-04T02:08:51.937Z,20.25
2022-09-04T02:11:28.140Z,20.26
2022-09-04T02:14:24.412Z,20.33
2022-09-04T02:17:08.929Z,20.38
2022-09-04T02:19:45.541Z,20.10
2022-09-04T02:22:22.983Z,19.95
2022-09-04T02:25:02.182Z,19.98
2022-09-04T02:27:36.404Z,19.81
2022-09-04T02:30:10.341Z,20.16
2022-09-04T02:32:43.899Z,20.10
2022-09-04T02:35:20.857Z,19.95
2022-09-04T02:38:04.656Z,19.45
2022-09-04T02:40:44.053Z,19.40
2022-09-04T02:43:26.150Z,19.74
2022-09-04T02:46:02.997Z,20.04
2022-09-04T02:48:44.872Z,20.20
2022-09-04T02:51:24.931Z,20.23
2022-09-04T02:54:01.569Z,20.20
2022-09-04T02:56:41.317Z,20.22
2022-09-04T02:59:36.971Z,20.21
2022-09-04T03:02:19.482Z,20.23
2022-09-04T03:04:57.682Z,20.22
2022-09-04T03:07:31.265Z,20.25
2022-09-04T03:10:08.049Z,19.47
2022-09-04T03:12:41.463Z,19.46
2022-09-04T03:15:17.993Z,19.69
2022-09-04T03:17:53.482Z,19.87
2022-09-04T03:20:25.317Z,19.42
2022-09-04T03:23:01.090Z,19.31
2022-09-04T03:26:12.785Z,19.51
2022-09-04T03:28:56.025Z,19.77
2022-09-04T03:31:39.595Z,19.64
2022-09-04T03:34:25.261Z,19.78
2022-09-04T03:37:09.736Z,20.09
2022-09-04T03:39:47.246Z,20.17
2022-09-04T03:42:26.694Z,19.91
2022-09-04T03:45:05.816Z,19.83
2022-09-04T03:47:44.218Z,19.85
2022-09-04T03:50:21.001Z,20.17
2022-09-04T03:53:01.753Z,20.38
2022-09-04T03:56:06.268Z,20.50
2022-09-04T03:58:45.946Z,20.60
2022-09-04T04:01:27.758Z,20.56
2022-09-04T04:04:15.759Z,20.56
2022-09-04T04:06:52.472Z,20.32
2022-09-04T04:09:48.983Z,20.06
2022-09-04T04:12:39.395Z,20.38
2022-09-04T04:15:24.522Z,20.00
2022-09-04T04:18:14.441Z,19.97
2022-09-04T04:20:50.357Z,19.60
2022-09-04T04:23:41.828Z,19.69
2022-09-04T04:26:14.556Z,19.29
2022-09-04T04:29:03.528Z,19.05
2022-09-04T04:31:44.998Z,19.44
2022-09-04T04:34:23.358Z,19.59
2022-09-04T04:37:00.685Z,19.92
2022-09-04T04:39:40.957Z,19.81
2022-09-04T04:42:22.936Z,19.71
2022-09-04T04:45:23.541Z,19.85
2022-09-04T04:48:24.103Z,19.91
2022-09-04T04:51:04.099Z,20.34
2022-09-04T04:53:37.474Z,20.20
2022-09-04T04:56:15.441Z,20.32
2022-09-04T04:58:57.406Z,20.48
2022-09-04T05:01:37.571Z,20.38
2022-09-04T05:04:16.332Z,20.16
2022-09-04T05:06:52.357Z,19.87
2022-09-04T05:09:27.137Z,19.77
2022-09-04T05:12:01.122Z,19.45
2022-09-04T05:14:47.698Z,20.25
2022-09-04T05:17:24.629Z,20.59
2022-09-04T05:20:00.490Z,20.19
2022-09-04T05:22:35.552Z,19.88
2022-09-04T05:25:12.243Z,19.82
2022-09-04T05:27:54.537Z,19.81
2022-09-04T05:30:29.896Z,20.29
2022-09-04T05:33:05.277Z,20.61
2022-09-04T05:35:43.915Z,20.91
2022-09-04T05:38:20.150Z,20.58
2022-09-04T05:41:04.688Z,21.16
2022-09-04T05:43:49.207Z,20.68
2022-09-04T05:46:29.387Z,20.29
2022-09-04T05:49:04.635Z,20.84
2022-09-04T05:51:56.691Z,21.16
2022-09-04T05:54:51.688Z,21.37
2022-09-04T05:57:32.091Z,21.50
2022-09-04T06:00:16.294Z,21.83
2022-09-04T06:03:09.561Z,22.22
2022-09-04T06:05:48.254Z,21.75
2022-09-04T06:08:33.568Z,22.68
2022-09-04T06:11:27.647Z,23.00
2022-09-04T06:14:09.205Z,23.09
2022-09-04T06:16:51.622Z,23.59
2022-09-04T06:19:38.463Z,24.10
2022-09-04T06:22:40.919Z,23.56
2022-09-04T06:25:38.981Z,24.36
2022-09-04T06:28:42.549Z,24.93
2022-09-04T06:31:35.191Z,25.12
2022-09-04T06:34:20.253Z,24.87
2022-09-04T06:37:03.984Z,24.25
2022-09-04T06:39:52.114Z,24.59
2022-09-04T06:42:31.562Z,24.50
2022-09-04T06:45:13.197Z,25.07
2022-09-04T06:47:59.311Z,25.34
2022-09-04T06:50:36.174Z,25.86
2022-09-04T06:53:21.447Z,25.77
2022-09-04T06:56:03.217Z,25.62
2022-09-04T06:59:01.318Z,26.48
2022-09-04T07:01:42.788Z,26.15
2022-09-04T07:04:25.297Z,25.57
2022-09-04T07:07:04.676Z,26.26
2022-09-04T07:09:38.424Z,25.84
2022-09-04T07:12:25.784Z,26.28
2022-09-04T07:15:27.313Z,27.17
2022-09-04T07:18:06.692Z,27.44
2022-09-04T07:20:42.868Z,27.54
2022-09-04T07:23:32.751Z,27.36
2022-09-04T07:26:12.440Z,27.61
2022-09-04T07:28:55.124Z,28.20
2022-09-04T07:31:28.721Z,28.93
2022-09-04T07:34:02.477Z,28.72
2022-09-04T07:36:40.735Z,28.64
2022-09-04T07:39:21.925Z,28.98
2022-09-04T07:41:59.537Z,28.93
2022-09-04T07:44:36.228Z,29.23
2022-09-04T07:47:14.472Z,29.14
2022-09-04T07:49:53.003Z,29.43
2022-09-04T07:52:36.823Z,30.38
2022-09-04T07:55:16.284Z,30.05
2022-09-04T07:58:02.598Z,30.34
2022-09-04T08:00:38.007Z,30.94
2022-09-04T08:03:26.833Z,31.01
2022-09-04T08:06:02.196Z,31.15
2022-09-04T08:08:52.475Z,32.42
2022-09-04T08:11:45.661Z,32.52
2022-09-04T08:14:24.941Z,32.69
2022-09-04T08:17:25.709Z,32.03
2022-09-04T08:20:04.496Z,31.45
2022-09-04T08:22:45.486Z,31.36
2022-09-04T08:25:21.589Z,31.82
2022-09-04T08:28:11.268Z,32.53
2022-09-04T08:30:44.823Z,32.83
2022-09-04T08:33:36.344Z,33.06
2022-09-04T08:36:15.746Z,32.52
2022-09-04T08:39:07.099Z,32.42
2022-09-04T08:42:17.661Z,32.52
2022-09-04T08:45:22.317Z,34.24
2022-09-04T08:48:32.649Z,32.23
2022-09-04T08:51:40.210Z,32.63
2022-09-04T08:54:42.653Z,33.42
2022-09-04T08:57:41.486Z,34.63
2022-09-04T09:00:13.593Z,34.70
2022-09-04T09:03:29.707Z,34.09
2022-09-04T09:06:29.780Z,33.60
2022-09-04T09:09:34.175Z,34.27
2022-09-04T09:12:40.932Z,33.69
2022-09-04T09:15:35.437Z,33.97
2022-09-04T09:18:12.942Z,33.23
2022-09-04T09:20:54.171Z,33.27
2022-09-04T09:23:39.038Z,33.55
2022-09-04T09:26:24.464Z,33.30
2022-09-04T09:29:25.168Z,33.20
2022-09-04T09:32:34.671Z,34.57
2022-09-04T09:35:46.457Z,35.83
2022-09-04T09:38:44.225Z,35.78
2022-09-04T09:42:03.393Z,33.77
2022-09-04T09:45:06.357Z,34.12
2022-09-04T09:48:23.316Z,35.15
2022-09-04T09:51:29.092Z,35.01
2022-09-04T09:54:26.919Z,36.05
2022-09-04T09:57:41.303Z,36.57
2022-09-04T10:00:15.433Z,36.26
2022-09-04T10:03:30.349Z,35.55
2022-09-04T10:06:28.136Z,36.70
2022-09-04T10:09:39.844Z,36.26
2022-09-04T10:12:46.513Z,36.09
2022-09-04T10:16:02.431Z,35.64
2022-09-04T10:19:16.624Z,34.36
2022-09-04T10:22:21.591Z,35.16
2022-09-04T10:25:21.600Z,34.39
2022-09-04T10:28:30.946Z,34.05
2022-09-04T10:31:33.498Z,34.47
2022-09-04T10:34:37.109Z,34.31
2022-09-04T10:37:20.897Z,34.70
2022-09-04T10:40:24.174Z,34.31
2022-09-04T10:43:09.853Z,33.80
2022-09-04T10:45:40.122Z,33.49
2022-09-04T10:48:32.360Z,33.84
2022-09-04T10:51:34.787Z,33.86
2022-09-04T10:54:32.961Z,33.27
2022-09-04T10:57:14.619Z,33.44
2022-09-04T11:00:08.051Z,33.47
2022-09-04T11:03:28.488Z,32.97
2022-09-04T11:06:32.923Z,32.92
2022-09-04T11:09:32.675Z,32.75
2022-09-04T11:12:31.573Z,32.18
2022-09-04T11:15:19.414Z,32.11
2022-09-04T11:18:15.739Z,32.95
2022-09-04T11:21:21.335Z,33.49
2022-09-04T11:24:22.963Z,34.34
2022-09-04T11:27:21.301Z,34.49
2022-09-04T11:30:07.363Z,33.55
2022-09-04T11:33:08.858Z,34.37
2022-09-04T11:35:56.995Z,33.29
2022-09-04T11:38:54.367Z,34.38
2022-09-04T11:41:45.738Z,34.29
2022-09-04T11:44:50.769Z,34.54
2022-09-04T11:47:44.062Z,34.48
2022-09-04T11:50:40.624Z,34.95
2022-09-04T11:53:27.658Z,35.96
2022-09-04T11:56:22.506Z,35.79
2022-09-04T11:59:09.593Z,34.24
2022-09-04T12:01:55.577Z,34.48
2022-09-04T12:04:42.165Z,34.10
2022-09-04T12:07:29.227Z,33.73
2022-09-04T12:10:24.611Z,33.08
2022-09-04T12:13:44.174Z,33.44
2022-09-04T12:16:59.718Z,32.42
2022-09-04T12:20:07.952Z,32.16
2022-09-04T12:23:27.785Z,32.95
2022-09-04T12:26:40.247Z,32.34
2022-09-04T12:29:58.412Z,33.66
2022-09-04T12:32:52.653Z,34.41
2022-09-04T12:35:56.119Z,34.61
2022-09-04T12:38:58.896Z,35.18
2022-09-04T12:41:33.573Z,35.08
2022-09-04T12:44:09.534Z,35.12
2022-09-04T12:46:55.659Z,35.33
2022-09-04T12:50:02.626Z,34.68
2022-09-04T12:52:45.687Z,35.43
2022-09-04T12:55:23.389Z,36.06
2022-09-04T12:58:02.983Z,34.83
2022-09-04T13:00:47.188Z,34.33
2022-09-04T13:03:28.748Z,34.76
2022-09-04T13:06:16.444Z,35.29
2022-09-04T13:08:58.583Z,36.27
2022-09-04T13:11:42.301Z,36.04
2022-09-04T13:14:30.702Z,34.68
2022-09-04T13:17:06.773Z,35.28
2022-09-04T13:19:46.081Z,35.26
2022-09-04T13:22:26.283Z,35.59
2022-09-04T13:25:03.422Z,35.50
2022-09-04T13:27:48.319Z,34.60
2022-09-04T13:30:22.065Z,35.11
2022-09-04T13:33:24.788Z,35.82
2022-09-04T13:36:19.321Z,35.35
2022-09-04T13:39:15.009Z,35.26
2022-09-04T13:42:16.701Z,34.92
2022-09-04T13:45:02.912Z,34.85
2022-09-04T13:47:39.592Z,35.27
2022-09-04T13:50:17.421Z,34.82
2022-09-04T13:52:53.668Z,34.89
2022-09-04T13:55:25.154Z,34.71
2022-09-04T13:58:00.285Z,33.34
2022-09-04T14:00:32.518Z,32.63
2022-09-04T14:03:04.214Z,32.18
2022-09-04T14:05:37.684Z,31.69
2022-09-04T14:08:14.404Z,31.54
2022-09-04T14:11:06.278Z,31.51
2022-09-04T14:13:51.973Z,31.19
2022-09-04T14:16:24.082Z,30.68
2022-09-04T14:19:15.807Z,30.11
2022-09-04T14:22:03.767Z,29.79
2022-09-04T14:24:41.104Z,29.95
2022-09-04T14:27:15.272Z,29.49
2022-09-04T14:29:56.794Z,29.71
2022-09-04T14:32:33.733Z,29.06
2022-09-04T14:35:12.777Z,28.98
2022-09-04T14:37:58.000Z,28.82
2022-09-04T14:40:34.032Z,28.98
2022-09-04T14:43:13.532Z,28.48
2022-09-04T14:46:06.929Z,28.52
2022-09-04T14:48:40.654Z,28.57
2022-09-04T14:51:17.608Z,28.38
2022-09-04T14:53:56.063Z,28.41
2022-09-04T14:56:32.967Z,28.30
2022-09-04T14:59:10.669Z,28.49
2022-09-04T15:01:56.102Z,28.77
2022-09-04T15:04:27.466Z,28.93
2022-09-04T15:07:11.177Z,28.72
2022-09-04T15:09:42.399Z,28.70
2022-09-04T15:12:24.974Z,28.37
2022-09-04T15:15:04.764Z,28.58
2022-09-04T15:17:36.317Z,28.81
2022-09-04T15:20:09.118Z,28.20
2022-09-04T15:22:42.983Z,28.85
2022-09-04T15:25:54.677Z,28.98
2022-09-04T15:28:30.298Z,28.88
2022-09-04T15:31:14.674Z,28.45
2022-09-04T15:33:45.571Z,28.25
2022-09-04T15:36:20.996Z,28.24
2022-09-04T15:38:53.268Z,28.40
2022-09-04T15:41:36.343Z,28.43
2022-09-04T15:44:19.256Z,28.41
2022-09-04T15:46:58.774Z,28.52
2022-09-04T15:49:39.878Z,28.49
2022-09-04T15:52:23.099Z,28.33
2022-09-04T15:55:22.218Z,28.22
2022-09-04T15:57:58.955Z,28.26
2022-09-04T16:00:32.449Z,28.26
2022-09-04T16:03:12.214Z,28.18
2022-09-04T16:05:45.639Z,28.07
2022-09-04T16:08:23.678Z,27.92
2022-09-04T16:11:00.086Z,27.77
2022-09-04T16:13:41.856Z,27.28
2022-09-04T16:16:18.189Z,27.15
2022-09-04T16:18:53.873Z,27.31
2022-09-04T16:21:32.278Z,27.63
2022-09-04T16:24:09.056Z,27.73
2022-09-04T16:26:39.465Z,27.42
2022-09-04T16:29:26.244Z,27.73
2022-09-04T16:31:59.006Z,27.37
2022-09-04T16:34:30.557Z,26.26
2022-09-04T16:37:08.691Z,26.80
2022-09-04T16:39:48.089Z,26.39
2022-09-04T16:42:23.201Z,26.42
2022-09-04T16:44:56.348Z,26.75
2022-09-04T16:47:32.964Z,26.12
2022-09-04T16:50:13.333Z,25.43
2022-09-04T16:53:13.731Z,25.55
2022-09-04T16:55:59.469Z,25.70
2022-09-04T16:58:40.153Z,25.76
2022-09-04T17:01:16.360Z,25.78
2022-09-04T17:04:13.436Z,25.23
2022-09-04T17:07:02.582Z,24.50
2022-09-04T17:09:45.551Z,24.46
2022-09-04T17:12:23.059Z,25.27
2022-09-04T17:14:56.932Z,24.63
2022-09-04T17:17:30.609Z,25.30
2022-09-04T17:20:05.379Z,24.92
2022-09-04T17:29:00.868Z,25.07
2022-09-04T17:29:13.981Z,25.07
2022-09-04T17:29:17.548Z,25.07
2022-09-04T17:31:45.637Z,24.95
2022-09-04T17:39:01.136Z,24.63
2022-09-04T17:40:41.901Z,23.57
2022-09-04T17:40:53.993Z,24.24
2022-09-04T17:43:23.400Z,24.18
2022-09-04T17:46:06.896Z,24.38
2022-09-04T17:48:42.292Z,24.24
2022-09-04T17:51:18.005Z,24.54
2022-09-04T17:53:53.013Z,24.59
2022-09-04T17:56:27.253Z,24.62
2022-09-04T17:59:03.036Z,24.66
2022-09-04T18:01:39.558Z,24.52
2022-09-04T18:04:27.433Z,24.73
2022-09-04T18:07:51.085Z,24.97
2022-09-04T18:10:04.299Z,24.83
2022-09-04T18:12:39.170Z,24.86
2022-09-04T18:15:34.394Z,24.95
2022-09-04T18:18:12.792Z,24.69
2022-09-04T18:20:46.622Z,24.44
2022-09-04T18:23:51.538Z,24.87
2022-09-04T18:26:40.825Z,24.80
2022-09-04T18:32:13.479Z,24.50
2022-09-04T18:37:08.298Z,23.51
2022-09-04T18:37:17.608Z,22.30
2022-09-04T18:38:22.290Z,21.68
2022-09-04T18:43:22.220Z,21.22
2022-09-04T18:50:21.589Z,20.83
2022-09-04T18:50:37.224Z,21.99
2022-09-04T18:50:38.512Z,22.05
2022-09-04T18:52:29.931Z,21.63
2022-09-04T18:55:03.725Z,21.53
2022-09-04T18:57:36.601Z,21.38
2022-09-04T19:00:11.573Z,21.12
2022-09-04T19:02:53.413Z,21.39
2022-09-04T19:05:25.237Z,21.89
2022-09-04T19:07:57.365Z,21.68
2022-09-04T19:10:29.211Z,21.60
2022-09-04T19:13:05.540Z,21.46
2022-09-04T19:16:04.301Z,21.71
2022-09-04T19:18:47.805Z,21.66
2022-09-04T19:21:26.741Z,20.57
2022-09-04T19:23:59.710Z,21.82
2022-09-04T19:26:37.622Z,21.60
2022-09-04T19:29:15.245Z,21.67
2022-09-04T19:31:53.319Z,20.93
2022-09-04T19:34:29.573Z,21.75
2022-09-04T19:38:19.266Z,21.51
2022-09-04T19:46:00.851Z,21.29
2022-09-04T19:46:02.084Z,21.15
2022-09-04T19:46:18.487Z,21.09
2022-09-04T19:49:06.397Z,21.31
2022-09-04T19:53:31.645Z,21.23
2022-09-04T19:54:36.383Z,21.80
2022-09-04T19:57:33.302Z,21.89
2022-09-04T20:00:43.065Z,21.68
2022-09-04T20:03:01.883Z,22.01
2022-09-04T20:05:33.828Z,22.18
2022-09-04T20:08:08.053Z,21.98
2022-09-04T20:10:44.606Z,22.07
2022-09-04T20:13:21.908Z,21.97
2022-09-04T20:15:56.656Z,21.16
2022-09-04T20:18:30.181Z,21.93
2022-09-04T20:21:08.505Z,21.90
2022-09-04T20:23:44.798Z,21.79
2022-09-04T20:26:21.442Z,21.72
2022-09-04T20:29:13.985Z,21.53
2022-09-04T20:31:54.192Z,21.69
2022-09-04T20:34:36.188Z,21.58
2022-09-04T20:37:25.831Z,21.74
2022-09-04T20:40:04.064Z,21.54
2022-09-04T20:42:39.704Z,21.18
2022-09-04T20:48:03.638Z,21.21
2022-09-04T20:52:50.477Z,21.62
2022-09-04T20:52:54.190Z,21.72
2022-09-04T20:54:28.858Z,21.77
2022-09-04T21:00:20.160Z,21.77
2022-09-04T21:03:07.434Z,21.63
2022-09-04T21:03:12.722Z,21.71
2022-09-04T21:06:11.959Z,21.33
2022-09-04T21:08:49.495Z,21.56
2022-09-04T21:11:40.407Z,21.47
2022-09-04T21:14:15.829Z,21.72
2022-09-04T21:17:34.822Z,21.95
2022-09-04T21:20:59.277Z,21.71
2022-09-04T21:24:03.425Z,21.56
2022-09-04T21:27:15.339Z,21.47
2022-09-04T21:29:59.506Z,21.37
2022-09-04T21:32:47.330Z,21.21
2022-09-04T21:35:22.770Z,21.53
2022-09-04T21:38:02.743Z,21.60
2022-09-04T21:41:01.338Z,21.58
2022-09-04T21:44:03.734Z,21.24
2022-09-04T21:46:56.491Z,21.18
2022-09-04T21:49:56.879Z,21.27
2022-09-04T21:52:46.007Z,21.51
2022-09-04T22:00:22.680Z,21.34
2022-09-04T22:02:40.791Z,21.02
2022-09-04T22:02:42.626Z,21.10
2022-09-04T22:05:03.046Z,20.64
2022-09-04T22:10:47.406Z,21.21
2022-09-04T22:13:46.653Z,21.27
2022-09-04T22:13:49.212Z,21.44
2022-09-04T22:16:34.523Z,21.39
2022-09-04T22:19:50.046Z,21.56
2022-09-04T22:22:45.112Z,21.85
2022-09-04T22:25:45.777Z,21.62
2022-09-04T22:28:52.622Z,21.71
2022-09-04T22:31:52.588Z,21.79
2022-09-04T22:34:53.888Z,21.87
2022-09-04T22:37:55.463Z,21.90
2022-09-04T22:40:39.952Z,21.82
2022-09-04T22:43:28.862Z,21.58
2022-09-04T22:46:38.158Z,20.82
2022-09-04T22:49:30.179Z,20.98
2022-09-04T22:52:26.272Z,21.60
2022-09-04T22:55:40.623Z,21.74
2022-09-04T22:58:37.656Z,21.65
2022-09-04T23:01:31.744Z,21.31
2022-09-04T23:04:17.983Z,21.22
2022-09-04T23:11:23.180Z,21.16
2022-09-04T23:13:57.221Z,21.10
2022-09-04T23:14:02.710Z,21.35
2022-09-04T23:17:09.099Z,20.73
2022-09-04T23:26:37.119Z,20.99
2022-09-04T23:26:58.361Z,20.90
2022-09-04T23:27:13.548Z,21.12
2022-09-04T23:30:25.029Z,21.32
2022-09-04T23:33:33.406Z,21.59
2022-09-04T23:36:33.475Z,20.95
2022-09-04T23:39:40.681Z,21.26
2022-09-04T23:42:29.631Z,21.13
2022-09-04T23:45:22.351Z,21.21
2022-09-04T23:48:19.311Z,21.28
2022-09-04T23:50:54.478Z,21.45
2022-09-04T23:53:33.948Z,21.58
2022-09-04T23:56:20.389Z,21.67
2022-09-04T23:59:30.347Z,21.69
